createdAt,value
2018-05-17T00:02:20.013Z,100746.82
2018-05-17T00:07:11.330Z,100741.38
2018-05-17T00:12:02.776Z,100746.31
2018-05-17T00:16:54.121Z,100741.02
2018-05-17T00:21:46.129Z,100738.86
2018-05-17T00:26:37.444Z,100739.55
2018-05-17T00:31:28.721Z,100746.77
2018-05-17T00:36:20.001Z,100744.59
2018-05-17T00:41:11.254Z,100748.16
2018-05-17T00:46:02.541Z,100748.30
2018-05-17T00:50:53.822Z,100738.11
2018-05-17T00:55:45.093Z,100735.39
2018-05-17T01:00:37.192Z,100733.92
2018-05-17T01:05:28.504Z,100730.23
2018-05-17T01:10:19.802Z,100733.64
2018-05-17T01:15:11.066Z,100723.70
2018-05-17T01:20:02.427Z,100726.83
2018-05-17T01:24:53.629Z,100722.91
2018-05-17T01:29:44.876Z,100733.50
2018-05-17T01:34:36.145Z,100724.94
2018-05-17T01:39:28.240Z,100724.67
2018-05-17T01:44:19.558Z,100711.36
2018-05-17T01:49:10.804Z,100717.33
2018-05-17T01:54:02.124Z,100710.94
2018-05-17T01:58:53.368Z,100715.98
2018-05-17T02:03:44.614Z,100715.81
2018-05-17T02:08:35.903Z,100725.73
2018-05-17T02:13:27.191Z,100735.66
2018-05-17T02:18:19.274Z,100729.39
2018-05-17T02:23:10.525Z,100725.13
2018-05-17T02:28:01.769Z,100721.30
2018-05-17T02:32:53.048Z,100724.13
2018-05-17T02:37:44.425Z,100729.94
2018-05-17T02:42:35.774Z,100737.12
2018-05-17T02:47:27.792Z,100729.63
2018-05-17T02:52:19.116Z,100743.58
2018-05-17T02:57:10.336Z,100747.11
2018-05-17T03:02:01.546Z,100743.44
2018-05-17T03:06:52.817Z,100743.12
2018-05-17T03:11:44.131Z,100744.98
2018-05-17T03:16:35.523Z,100743.73
2018-05-17T03:21:26.791Z,100749.69
2018-05-17T03:26:18.053Z,100752.23
2018-05-17T03:31:09.335Z,100759.66
2018-05-17T03:36:00.634Z,100760.06
2018-05-17T03:40:51.902Z,100763.16
2018-05-17T03:45:43.152Z,100751.72
2018-05-17T03:50:34.386Z,100760.09
2018-05-17T03:55:25.673Z,100766.88
2018-05-17T04:00:16.920Z,100763.61
2018-05-17T04:05:26.634Z,100761.43
2018-05-17T04:10:18.685Z,100770.08
2018-05-17T04:15:10.685Z,100774.00
2018-05-17T04:20:01.953Z,100781.14
2018-05-17T04:24:54.045Z,100787.73
2018-05-17T04:29:45.329Z,100786.22
2018-05-17T04:34:37.374Z,100789.09
2018-05-17T04:39:29.454Z,100789.15
2018-05-17T04:44:20.732Z,100782.17
2018-05-17T04:49:12.817Z,100787.23
2018-05-17T04:54:04.153Z,100784.67
2018-05-17T04:58:55.387Z,100795.01
2018-05-17T05:03:46.661Z,100805.25
2018-05-17T05:08:38.011Z,100811.82
2018-05-17T05:13:30.021Z,100808.33
2018-05-17T05:18:21.284Z,100816.83
2018-05-17T05:23:13.369Z,100818.91
2018-05-17T05:28:04.684Z,100824.35
2018-05-17T05:32:55.925Z,100826.16
2018-05-17T05:37:47.181Z,100828.08
2018-05-17T05:42:38.456Z,100830.13
2018-05-17T05:47:30.527Z,100828.38
2018-05-17T05:52:21.825Z,100832.73
2018-05-17T05:57:13.881Z,100837.77
2018-05-17T06:02:05.157Z,100837.00
2018-05-17T06:06:56.509Z,100844.63
2018-05-17T06:11:47.793Z,100850.02
2018-05-17T06:16:39.116Z,100859.00
2018-05-17T06:21:30.348Z,100859.28
2018-05-17T06:26:21.640Z,100860.69
2018-05-17T06:31:13.602Z,100862.61
2018-05-17T06:36:04.978Z,100869.56
2018-05-17T06:40:56.256Z,100872.34
2018-05-17T06:45:48.364Z,100878.05
2018-05-17T06:50:39.711Z,100876.45
2018-05-17T06:55:30.988Z,100880.27
2018-05-17T07:00:22.318Z,100877.71
2018-05-17T07:05:13.612Z,100873.66
2018-05-17T07:10:05.598Z,100870.55
2018-05-17T07:14:56.875Z,100881.91
2018-05-17T07:19:48.165Z,100872.00
2018-05-17T07:24:39.529Z,100877.70
2018-05-17T07:29:30.966Z,100877.52
2018-05-17T07:34:23.152Z,100882.44
2018-05-17T07:39:14.589Z,100895.91
2018-05-17T07:44:05.793Z,100897.91
2018-05-17T07:48:57.829Z,100892.22
2018-05-17T07:53:49.870Z,100897.73
2018-05-17T07:58:41.909Z,100887.80
2018-05-17T08:03:33.156Z,100892.61
2018-05-17T08:08:25.144Z,100893.95
2018-05-17T08:13:16.450Z,100891.78
2018-05-17T08:18:07.711Z,100903.52
2018-05-17T08:22:59.067Z,100901.30
2018-05-17T08:27:50.316Z,100898.02
2018-05-17T08:32:42.310Z,100905.69
2018-05-17T08:37:33.710Z,100907.15
2018-05-17T08:42:24.999Z,100905.52
2018-05-17T08:47:16.228Z,100910.26
2018-05-17T08:52:07.517Z,100904.53
2018-05-17T08:56:58.869Z,100914.31
2018-05-17T09:01:50.125Z,100915.64
2018-05-17T09:06:42.228Z,100916.78
2018-05-17T09:11:33.506Z,100927.19
2018-05-17T09:16:25.472Z,100922.48
2018-05-17T09:21:17.427Z,100931.64
2018-05-17T09:26:08.645Z,100926.34
2018-05-17T09:31:07.015Z,100939.51
2018-05-17T09:35:59.017Z,100936.31
2018-05-17T09:40:50.321Z,100943.33
2018-05-17T09:45:41.661Z,100941.75
2018-05-17T09:50:32.946Z,100956.47
2018-05-17T09:55:24.342Z,100958.30
2018-05-17T10:00:21.598Z,100952.54
2018-05-17T10:05:12.853Z,100950.33
2018-05-17T10:10:04.134Z,100953.59
2018-05-17T10:14:55.378Z,100959.39
2018-05-17T10:19:46.621Z,100952.51
2018-05-17T10:24:37.922Z,100943.33
2018-05-17T10:29:29.266Z,100941.27
2018-05-17T10:34:20.486Z,100949.60
2018-05-17T10:39:11.728Z,100939.88
2018-05-17T10:44:03.101Z,100937.70
2018-05-17T10:48:54.426Z,100938.48
2018-05-17T10:53:45.642Z,100940.14
2018-05-17T10:58:36.951Z,100938.81
2018-05-17T11:03:28.170Z,100946.95
2018-05-17T11:08:19.426Z,100960.10
2018-05-17T11:13:10.654Z,100950.96
2018-05-17T11:18:01.950Z,100947.58
2018-05-17T11:22:53.201Z,100959.45
2018-05-17T11:27:45.197Z,100956.14
2018-05-17T11:32:37.170Z,100956.27
2018-05-17T11:37:28.422Z,100966.13
2018-05-17T11:42:19.778Z,100946.77
2018-05-17T11:47:11.077Z,100955.47
2018-05-17T11:52:02.430Z,100952.84
2018-05-17T11:56:53.739Z,100943.89
2018-05-17T12:01:45.018Z,100949.43
2018-05-17T12:06:36.297Z,100955.44
2018-05-17T12:11:27.548Z,100959.64
2018-05-17T12:16:18.847Z,100940.87
2018-05-17T12:21:10.045Z,100943.66
2018-05-17T12:26:01.355Z,100959.32
2018-05-17T12:30:52.652Z,100952.52
2018-05-17T12:35:43.968Z,100956.98
2018-05-17T12:40:35.232Z,100954.38
2018-05-17T12:45:27.306Z,100949.53
2018-05-17T12:50:25.538Z,100953.14
2018-05-17T12:55:16.845Z,100951.14
2018-05-17T13:00:08.106Z,100951.16
2018-05-17T13:04:59.455Z,100944.83
2018-05-17T13:09:51.486Z,100944.30
2018-05-17T13:14:42.754Z,100937.84
2018-05-17T13:19:33.989Z,100931.03
2018-05-17T13:24:25.252Z,100931.60
2018-05-17T13:29:16.491Z,100927.36
2018-05-17T13:34:07.809Z,100926.83
2018-05-17T13:38:59.101Z,100926.07
2018-05-17T13:43:50.370Z,100921.00
2018-05-17T13:48:41.617Z,100910.38
2018-05-17T13:53:32.848Z,100918.14
2018-05-17T13:58:24.147Z,100914.69
2018-05-17T14:03:22.368Z,100906.73
2018-05-17T14:08:14.377Z,100915.86
2018-05-17T14:13:05.687Z,100909.82
2018-05-17T14:17:57.217Z,100911.28
2018-05-17T14:22:48.512Z,100915.46
2018-05-17T14:27:40.554Z,100907.34
2018-05-17T14:32:33.993Z,100910.02
2018-05-17T14:37:25.333Z,100905.53
2018-05-17T14:42:19.694Z,100904.39
2018-05-17T14:47:13.982Z,100911.30
2018-05-17T14:52:05.298Z,100913.48
2018-05-17T14:56:57.307Z,100912.91
2018-05-17T15:01:48.662Z,100906.33
2018-05-17T15:06:39.997Z,100909.04
2018-05-17T15:11:31.258Z,100913.06
2018-05-17T15:16:23.348Z,100907.91
2018-05-17T15:21:14.695Z,100912.53
2018-05-17T15:26:06.721Z,100910.70
2018-05-17T15:30:59.405Z,100908.45
2018-05-17T15:35:50.644Z,100907.97
2018-05-17T15:40:41.936Z,100904.47
2018-05-17T15:45:33.192Z,100905.55
2018-05-17T15:50:24.529Z,100911.72
2018-05-17T15:55:15.966Z,100905.48
2018-05-17T16:00:07.505Z,100905.02
2018-05-17T16:04:58.816Z,100913.06
2018-05-17T16:09:50.116Z,100907.66
2018-05-17T16:14:41.417Z,100911.94
2018-05-17T16:19:33.430Z,100913.36
2018-05-17T16:24:24.764Z,100918.20
2018-05-17T16:29:16.108Z,100920.72
2018-05-17T16:34:07.578Z,100928.09
2018-05-17T16:38:58.842Z,100929.17
2018-05-17T16:43:50.142Z,100931.27
2018-05-17T16:48:41.513Z,100928.86
2018-05-17T16:53:32.919Z,100934.33
2018-05-17T16:58:24.203Z,100935.28
2018-05-17T17:03:16.204Z,100937.32
2018-05-17T17:08:07.538Z,100935.77
2018-05-17T17:12:58.865Z,100945.97
2018-05-17T17:17:50.140Z,100951.05
2018-05-17T17:22:41.412Z,100950.61
2018-05-17T17:27:33.472Z,100951.28
2018-05-17T17:32:24.871Z,100963.23
2018-05-17T17:37:16.899Z,100956.99
2018-05-17T17:42:08.235Z,100961.92
2018-05-17T17:46:59.626Z,100974.67
2018-05-17T17:51:51.712Z,100977.34
2018-05-17T17:56:43.084Z,100974.63
2018-05-17T18:01:34.488Z,100974.63
2018-05-17T18:06:26.691Z,100982.22
2018-05-17T18:11:18.018Z,100985.47
2018-05-17T18:16:10.167Z,100992.83
2018-05-17T18:21:01.555Z,100993.12
2018-05-17T18:25:52.973Z,101001.24
2018-05-17T18:30:44.253Z,101008.16
2018-05-17T18:35:36.280Z,101014.76
2018-05-17T18:40:27.504Z,101024.42
2018-05-17T18:45:18.765Z,101028.39
2018-05-17T18:50:10.790Z,101034.72
2018-05-17T18:55:02.118Z,101043.98
2018-05-17T18:59:53.505Z,101045.56
2018-05-17T19:04:44.869Z,101062.31
2018-05-17T19:09:36.098Z,101062.89
2018-05-17T19:14:27.423Z,101076.48
2018-05-17T19:19:18.728Z,101083.05
2018-05-17T19:24:09.993Z,101093.59
2018-05-17T19:29:01.286Z,101101.70
2018-05-17T19:33:52.622Z,101103.32
2018-05-17T19:38:43.898Z,101115.66
2018-05-17T19:43:35.900Z,101123.20
2018-05-17T19:48:27.350Z,101135.52
2018-05-17T19:53:18.671Z,101138.25
2018-05-17T19:58:10.001Z,101144.03
2018-05-17T20:03:01.307Z,101149.54
2018-05-17T20:07:52.615Z,101148.83
2018-05-17T20:12:43.866Z,101154.91
2018-05-17T20:17:35.168Z,101152.63
2018-05-17T20:22:27.142Z,101158.43
2018-05-17T20:27:18.410Z,101155.63
2018-05-17T20:32:09.750Z,101159.93
2018-05-17T20:37:01.817Z,101166.20
2018-05-17T20:41:54.245Z,101164.07
2018-05-17T20:46:45.549Z,101177.41
2018-05-17T20:51:36.831Z,101170.59
2018-05-17T20:56:28.881Z,101184.05
2018-05-17T21:01:20.933Z,101189.41
2018-05-17T21:06:12.181Z,101197.25
2018-05-17T21:11:03.439Z,101204.59
2018-05-17T21:15:54.709Z,101219.90
2018-05-17T21:20:46.680Z,101214.28
2018-05-17T21:25:37.977Z,101228.75
2018-05-17T21:30:30.034Z,101209.93
2018-05-17T21:35:21.319Z,101224.61
2018-05-17T21:40:12.567Z,101216.08
2018-05-17T21:45:04.673Z,101227.23
2018-05-17T21:49:56.236Z,101230.45
2018-05-17T21:54:47.504Z,101230.91
2018-05-17T21:59:38.758Z,101237.17
2018-05-17T22:04:30.157Z,101242.91
2018-05-17T22:09:22.116Z,101245.20
2018-05-17T22:14:13.508Z,101246.66
2018-05-17T22:19:04.776Z,101245.67
2018-05-17T22:23:56.005Z,101257.75
2018-05-17T22:28:47.225Z,101250.92
2018-05-17T22:33:38.581Z,101251.77
2018-05-17T22:38:29.869Z,101247.59
2018-05-17T22:43:21.881Z,101259.73
2018-05-17T22:48:13.144Z,101254.16
2018-05-17T22:53:05.161Z,101248.14
2018-05-17T22:58:14.947Z,101243.40
2018-05-17T23:03:06.968Z,101254.10
2018-05-17T23:07:58.233Z,101259.94
2018-05-17T23:12:50.243Z,101255.62
2018-05-17T23:17:41.568Z,101251.09
2018-05-17T23:22:34.847Z,101259.15
2018-05-17T23:27:26.074Z,101266.82
2018-05-17T23:32:17.345Z,101265.12
2018-05-17T23:37:19.920Z,101266.39
2018-05-17T23:42:11.949Z,101270.83
2018-05-17T23:47:03.308Z,101264.88
2018-05-17T23:51:55.676Z,101265.88
2018-05-17T23:56:46.947Z,101268.34
